sensor_id;sensor_type;location;lat;lon;timestamp;pressure;altitude;pressure_sealevel;temperature
68911;BMP180;55953;51.650;-0.522;2023-03-01T00:01:45;102381.00;;;6.30
68911;BMP180;55953;51.650;-0.522;2023-03-01T00:04:13;102380.80;;;6.20
68911;BMP180;55953;51.650;-0.522;2023-03-01T00:06:43;102385.40;;;6.20
68911;BMP180;55953;51.650;-0.522;2023-03-01T00:09:15;102389.40;;;6.10
68911;BMP180;55953;51.650;-0.522;2023-03-01T00:11:43;102394.80;;;6.10
68911;BMP180;55953;51.650;-0.522;2023-03-01T00:14:11;102389.20;;;6.02
68911;BMP180;55953;51.650;-0.522;2023-03-01T00:16:42;102393.40;;;6.00
68911;BMP180;55953;51.650;-0.522;2023-03-01T00:19:20;102395.60;;;6.00
68911;BMP180;55953;51.650;-0.522;2023-03-01T00:21:49;102393.40;;;5.96
68911;BMP180;55953;51.650;-0.522;2023-03-01T00:24:17;102399.60;;;6.00
68911;BMP180;55953;51.650;-0.522;2023-03-01T00:26:45;102395.40;;;6.00
68911;BMP180;55953;51.650;-0.522;2023-03-01T00:29:14;102394.80;;;5.92
68911;BMP180;55953;51.650;-0.522;2023-03-01T00:31:42;102397.20;;;5.94
68911;BMP180;55953;51.650;-0.522;2023-03-01T00:34:09;102397.80;;;5.96
68911;BMP180;55953;51.650;-0.522;2023-03-01T00:36:37;102397.60;;;5.90
68911;BMP180;55953;51.650;-0.522;2023-03-01T00:39:12;102399.80;;;5.90
68911;BMP180;55953;51.650;-0.522;2023-03-01T00:41:42;102401.80;;;5.90
68911;BMP180;55953;51.650;-0.522;2023-03-01T00:44:10;102397.40;;;5.90
68911;BMP180;55953;51.650;-0.522;2023-03-01T00:46:38;102393.20;;;5.90
68911;BMP180;55953;51.650;-0.522;2023-03-01T00:49:06;102389.60;;;5.90
68911;BMP180;55953;51.650;-0.522;2023-03-01T00:51:35;102385.80;;;5.90
68911;BMP180;55953;51.650;-0.522;2023-03-01T00:54:26;102389.80;;;5.82
68911;BMP180;55953;51.650;-0.522;2023-03-01T00:56:54;102382.40;;;5.80
68911;BMP180;55953;51.650;-0.522;2023-03-01T00:59:22;102378.40;;;5.80
68911;BMP180;55953;51.650;-0.522;2023-03-01T01:01:50;102373.80;;;5.80
68911;BMP180;55953;51.650;-0.522;2023-03-01T01:04:18;102377.80;;;5.80
68911;BMP180;55953;51.650;-0.522;2023-03-01T01:06:46;102376.80;;;5.84
68911;BMP180;55953;51.650;-0.522;2023-03-01T01:09:17;102371.80;;;5.86
68911;BMP180;55953;51.650;-0.522;2023-03-01T01:11:48;102378.40;;;5.78
68911;BMP180;55953;51.650;-0.522;2023-03-01T01:14:41;102374.40;;;5.80
68911;BMP180;55953;51.650;-0.522;2023-03-01T01:17:56;102372.40;;;5.80
68911;BMP180;55953;51.650;-0.522;2023-03-01T01:21:17;102374.80;;;5.80
68911;BMP180;55953;51.650;-0.522;2023-03-01T01:23:46;102372.80;;;5.80
68911;BMP180;55953;51.650;-0.522;2023-03-01T01:26:22;102371.60;;;5.82
68911;BMP180;55953;51.650;-0.522;2023-03-01T01:28:51;102379.60;;;5.84
68911;BMP180;55953;51.650;-0.522;2023-03-01T01:31:19;102377.60;;;5.80
68911;BMP180;55953;51.650;-0.522;2023-03-01T01:33:47;102377.40;;;5.80
68911;BMP180;55953;51.650;-0.522;2023-03-01T01:36:15;102373.60;;;5.80
68911;BMP180;55953;51.650;-0.522;2023-03-01T01:38:44;102369.20;;;5.80
68911;BMP180;55953;51.650;-0.522;2023-03-01T01:41:13;102370.20;;;5.70
68911;BMP180;55953;51.650;-0.522;2023-03-01T01:43:48;102368.20;;;5.70
68911;BMP180;55953;51.650;-0.522;2023-03-01T01:46:32;102364.40;;;5.70
68911;BMP180;55953;51.650;-0.522;2023-03-01T01:49:12;102368.20;;;5.70
68911;BMP180;55953;51.650;-0.522;2023-03-01T01:51:48;102366.20;;;5.70
68911;BMP180;55953;51.650;-0.522;2023-03-01T01:54:25;102361.80;;;5.64
68911;BMP180;55953;51.650;-0.522;2023-03-01T01:57:03;102360.20;;;5.60
68911;BMP180;55953;51.650;-0.522;2023-03-01T01:59:35;102356.00;;;5.52
68911;BMP180;55953;51.650;-0.522;2023-03-01T02:02:04;102349.60;;;5.50
68911;BMP180;55953;51.650;-0.522;2023-03-01T02:04:33;102349.40;;;5.40
68911;BMP180;55953;51.650;-0.522;2023-03-01T02:07:21;102345.40;;;5.40
68911;BMP180;55953;51.650;-0.522;2023-03-01T02:09:52;102348.40;;;5.38
68911;BMP180;55953;51.650;-0.522;2023-03-01T02:12:24;102346.00;;;5.40
68911;BMP180;55953;51.650;-0.522;2023-03-01T02:14:53;102338.00;;;5.40
68911;BMP180;55953;51.650;-0.522;2023-03-01T02:17:21;102338.00;;;5.32
68911;BMP180;55953;51.650;-0.522;2023-03-01T02:20:26;102340.40;;;5.30
68911;BMP180;55953;51.650;-0.522;2023-03-01T02:22:59;102339.40;;;5.30
68911;BMP180;55953;51.650;-0.522;2023-03-01T02:30:48;102328.60;;;5.30
68911;BMP180;55953;51.650;-0.522;2023-03-01T02:33:39;102328.40;;;5.30
68911;BMP180;55953;51.650;-0.522;2023-03-01T02:36:21;102329.60;;;5.30
68911;BMP180;55953;51.650;-0.522;2023-03-01T02:38:57;102332.60;;;5.30
68911;BMP180;55953;51.650;-0.522;2023-03-01T02:41:30;102325.20;;;5.30
68911;BMP180;55953;51.650;-0.522;2023-03-01T02:43:59;102321.40;;;5.30
68911;BMP180;55953;51.650;-0.522;2023-03-01T02:46:27;102315.40;;;5.30
68911;BMP180;55953;51.650;-0.522;2023-03-01T02:48:58;102309.60;;;5.26
68911;BMP180;55953;51.650;-0.522;2023-03-01T02:56:51;102302.00;;;5.20
68911;BMP180;55953;51.650;-0.522;2023-03-01T02:59:31;102295.00;;;5.20
68911;BMP180;55953;51.650;-0.522;2023-03-01T03:02:02;102295.00;;;5.20
68911;BMP180;55953;51.650;-0.522;2023-03-01T03:04:31;102291.20;;;5.20
68911;BMP180;55953;51.650;-0.522;2023-03-01T03:06:59;102290.60;;;5.12
68911;BMP180;55953;51.650;-0.522;2023-03-01T03:09:27;102290.60;;;5.10
68911;BMP180;55953;51.650;-0.522;2023-03-01T03:11:56;102284.80;;;5.10
68911;BMP180;55953;51.650;-0.522;2023-03-01T03:14:24;102284.60;;;5.10
68911;BMP180;55953;51.650;-0.522;2023-03-01T03:16:52;102275.80;;;5.10
68911;BMP180;55953;51.650;-0.522;2023-03-01T03:19:20;102273.60;;;5.06
68911;BMP180;55953;51.650;-0.522;2023-03-01T03:21:48;102277.20;;;5.02
68911;BMP180;55953;51.650;-0.522;2023-03-01T03:24:17;102276.80;;;5.02
68911;BMP180;55953;51.650;-0.522;2023-03-01T03:26:46;102273.20;;;5.10
68911;BMP180;55953;51.650;-0.522;2023-03-01T03:29:13;102270.20;;;5.10
68911;BMP180;55953;51.650;-0.522;2023-03-01T03:31:41;102274.20;;;5.04
68911;BMP180;55953;51.650;-0.522;2023-03-01T03:34:10;102274.60;;;5.00
68911;BMP180;55953;51.650;-0.522;2023-03-01T03:36:45;102268.40;;;5.00
68911;BMP180;55953;51.650;-0.522;2023-03-01T03:39:13;102267.20;;;5.00
68911;BMP180;55953;51.650;-0.522;2023-03-01T03:41:41;102268.60;;;5.04
68911;BMP180;55953;51.650;-0.522;2023-03-01T03:44:09;102259.00;;;5.00
68911;BMP180;55953;51.650;-0.522;2023-03-01T03:46:36;102255.60;;;5.10
68911;BMP180;55953;51.650;-0.522;2023-03-01T03:49:05;102256.20;;;5.10
68911;BMP180;55953;51.650;-0.522;2023-03-01T03:51:33;102258.00;;;5.10
68911;BMP180;55953;51.650;-0.522;2023-03-01T03:54:01;102244.80;;;5.10
68911;BMP180;55953;51.650;-0.522;2023-03-01T03:56:29;102243.40;;;5.00
68911;BMP180;55953;51.650;-0.522;2023-03-01T03:58:57;102245.00;;;5.00
68911;BMP180;55953;51.650;-0.522;2023-03-01T04:01:25;102242.00;;;5.00
68911;BMP180;55953;51.650;-0.522;2023-03-01T04:03:54;102243.00;;;5.00
68911;BMP180;55953;51.650;-0.522;2023-03-01T04:06:22;102240.60;;;4.98
68911;BMP180;55953;51.650;-0.522;2023-03-01T04:08:50;102240.20;;;4.90
68911;BMP180;55953;51.650;-0.522;2023-03-01T04:11:18;102236.80;;;4.90
68911;BMP180;55953;51.650;-0.522;2023-03-01T04:13:57;102236.60;;;4.88
68911;BMP180;55953;51.650;-0.522;2023-03-01T04:16:26;102233.00;;;4.84
68911;BMP180;55953;51.650;-0.522;2023-03-01T04:18:54;102234.40;;;4.90
68911;BMP180;55953;51.650;-0.522;2023-03-01T04:21:22;102235.60;;;5.00
68911;BMP180;55953;51.650;-0.522;2023-03-01T04:23:51;102229.80;;;5.00
68911;BMP180;55953;51.650;-0.522;2023-03-01T04:26:20;102226.00;;;5.02
68911;BMP180;55953;51.650;-0.522;2023-03-01T04:28:48;102223.00;;;5.10
68911;BMP180;55953;51.650;-0.522;2023-03-01T04:31:19;102224.80;;;5.20
68911;BMP180;55953;51.650;-0.522;2023-03-01T04:33:53;102220.00;;;5.20
68911;BMP180;55953;51.650;-0.522;2023-03-01T04:36:25;102221.60;;;5.20
68911;BMP180;55953;51.650;-0.522;2023-03-01T04:38:54;102224.40;;;5.30
68911;BMP180;55953;51.650;-0.522;2023-03-01T04:41:24;102221.60;;;5.28
68911;BMP180;55953;51.650;-0.522;2023-03-01T04:43:53;102223.00;;;5.20
68911;BMP180;55953;51.650;-0.522;2023-03-01T04:46:21;102222.80;;;5.26
68911;BMP180;55953;51.650;-0.522;2023-03-01T04:48:49;102225.60;;;5.20
68911;BMP180;55953;51.650;-0.522;2023-03-01T04:51:18;102219.80;;;5.20
68911;BMP180;55953;51.650;-0.522;2023-03-01T04:53:46;102220.40;;;5.20
68911;BMP180;55953;51.650;-0.522;2023-03-01T04:56:15;102216.80;;;5.12
68911;BMP180;55953;51.650;-0.522;2023-03-01T04:58:44;102208.40;;;5.10
68911;BMP180;55953;51.650;-0.522;2023-03-01T05:01:18;102206.40;;;5.10
68911;BMP180;55953;51.650;-0.522;2023-03-01T05:03:50;102209.60;;;5.10
68911;BMP180;55953;51.650;-0.522;2023-03-01T05:06:20;102208.80;;;5.10
68911;BMP180;55953;51.650;-0.522;2023-03-01T05:08:48;102204.80;;;5.06
68911;BMP180;55953;51.650;-0.522;2023-03-01T05:11:16;102206.40;;;5.04
68911;BMP180;55953;51.650;-0.522;2023-03-01T05:13:44;102207.40;;;5.00
68911;BMP180;55953;51.650;-0.522;2023-03-01T05:16:12;102202.00;;;5.00
68911;BMP180;55953;51.650;-0.522;2023-03-01T05:18:41;102202.20;;;5.00
68911;BMP180;55953;51.650;-0.522;2023-03-01T05:21:13;102195.00;;;5.00
68911;BMP180;55953;51.650;-0.522;2023-03-01T05:23:45;102197.40;;;5.00
68911;BMP180;55953;51.650;-0.522;2023-03-01T05:26:17;102193.00;;;5.00
68911;BMP180;55953;51.650;-0.522;2023-03-01T05:28:55;102183.20;;;5.00
68911;BMP180;55953;51.650;-0.522;2023-03-01T05:31:28;102185.60;;;5.00
68911;BMP180;55953;51.650;-0.522;2023-03-01T05:33:58;102183.40;;;5.00
68911;BMP180;55953;51.650;-0.522;2023-03-01T05:36:26;102183.00;;;5.00
68911;BMP180;55953;51.650;-0.522;2023-03-01T05:38:53;102180.00;;;5.00
68911;BMP180;55953;51.650;-0.522;2023-03-01T05:41:21;102183.40;;;5.00
68911;BMP180;55953;51.650;-0.522;2023-03-01T05:43:49;102185.80;;;4.98
68911;BMP180;55953;51.650;-0.522;2023-03-01T05:46:17;102184.80;;;4.96
68911;BMP180;55953;51.650;-0.522;2023-03-01T05:48:45;102188.40;;;4.90
68911;BMP180;55953;51.650;-0.522;2023-03-01T05:51:13;102184.80;;;4.90
68911;BMP180;55953;51.650;-0.522;2023-03-01T05:53:40;102187.40;;;4.90
68911;BMP180;55953;51.650;-0.522;2023-03-01T05:56:09;102185.00;;;4.88
68911;BMP180;55953;51.650;-0.522;2023-03-01T05:58:37;102183.80;;;4.88
68911;BMP180;55953;51.650;-0.522;2023-03-01T06:01:12;102179.20;;;4.88
68911;BMP180;55953;51.650;-0.522;2023-03-01T06:03:41;102185.80;;;4.80
68911;BMP180;55953;51.650;-0.522;2023-03-01T06:06:09;102185.00;;;4.86
68911;BMP180;55953;51.650;-0.522;2023-03-01T06:08:37;102180.20;;;4.80
68911;BMP180;55953;51.650;-0.522;2023-03-01T06:11:05;102185.00;;;4.80
68911;BMP180;55953;51.650;-0.522;2023-03-01T06:13:34;102185.40;;;4.80
68911;BMP180;55953;51.650;-0.522;2023-03-01T06:16:06;102187.60;;;4.80
68911;BMP180;55953;51.650;-0.522;2023-03-01T06:18:35;102194.80;;;4.80
68911;BMP180;55953;51.650;-0.522;2023-03-01T06:21:05;102190.00;;;4.80
68911;BMP180;55953;51.650;-0.522;2023-03-01T06:23:33;102188.20;;;4.80
68911;BMP180;55953;51.650;-0.522;2023-03-01T06:26:06;102188.20;;;4.80
68911;BMP180;55953;51.650;-0.522;2023-03-01T06:28:35;102188.80;;;4.80
68911;BMP180;55953;51.650;-0.522;2023-03-01T06:31:03;102187.00;;;4.70
68911;BMP180;55953;51.650;-0.522;2023-03-01T06:33:31;102192.80;;;4.70
68911;BMP180;55953;51.650;-0.522;2023-03-01T06:35:59;102188.60;;;4.66
68911;BMP180;55953;51.650;-0.522;2023-03-01T06:38:27;102196.60;;;4.66
68911;BMP180;55953;51.650;-0.522;2023-03-01T06:40:55;102199.80;;;4.60
68911;BMP180;55953;51.650;-0.522;2023-03-01T06:43:24;102200.40;;;4.60
68911;BMP180;55953;51.650;-0.522;2023-03-01T06:45:52;102202.60;;;4.60
68911;BMP180;55953;51.650;-0.522;2023-03-01T06:48:20;102198.00;;;4.60
68911;BMP180;55953;51.650;-0.522;2023-03-01T06:50:47;102205.80;;;4.60
68911;BMP180;55953;51.650;-0.522;2023-03-01T06:53:15;102204.60;;;4.60
68911;BMP180;55953;51.650;-0.522;2023-03-01T06:55:43;102207.40;;;4.60
68911;BMP180;55953;51.650;-0.522;2023-03-01T06:58:11;102206.40;;;4.60
68911;BMP180;55953;51.650;-0.522;2023-03-01T07:00:39;102207.20;;;4.68
68911;BMP180;55953;51.650;-0.522;2023-03-01T07:03:08;102208.00;;;4.70
68911;BMP180;55953;51.650;-0.522;2023-03-01T07:05:37;102207.80;;;4.70
68911;BMP180;55953;51.650;-0.522;2023-03-01T07:08:05;102203.60;;;4.70
68911;BMP180;55953;51.650;-0.522;2023-03-01T07:10:33;102207.00;;;4.70
68911;BMP180;55953;51.650;-0.522;2023-03-01T07:13:01;102212.60;;;4.70
68911;BMP180;55953;51.650;-0.522;2023-03-01T07:15:29;102215.60;;;4.70
68911;BMP180;55953;51.650;-0.522;2023-03-01T07:17:57;102219.80;;;4.74
68911;BMP180;55953;51.650;-0.522;2023-03-01T07:20:25;102214.80;;;4.80
68911;BMP180;55953;51.650;-0.522;2023-03-01T07:22:55;102215.00;;;4.80
68911;BMP180;55953;51.650;-0.522;2023-03-01T07:25:26;102215.40;;;4.80
68911;BMP180;55953;51.650;-0.522;2023-03-01T07:27:53;102207.20;;;4.80
68911;BMP180;55953;51.650;-0.522;2023-03-01T07:30:22;102213.80;;;4.90
68911;BMP180;55953;51.650;-0.522;2023-03-01T07:32:54;102208.60;;;4.94
68911;BMP180;55953;51.650;-0.522;2023-03-01T07:35:25;102209.60;;;5.00
68911;BMP180;55953;51.650;-0.522;2023-03-01T07:37:53;102207.40;;;5.10
68911;BMP180;55953;51.650;-0.522;2023-03-01T07:40:21;102208.00;;;5.10
68911;BMP180;55953;51.650;-0.522;2023-03-01T07:42:49;102205.20;;;5.10
68911;BMP180;55953;51.650;-0.522;2023-03-01T07:45:22;102209.60;;;5.10
68911;BMP180;55953;51.650;-0.522;2023-03-01T07:47:53;102210.20;;;5.00
68911;BMP180;55953;51.650;-0.522;2023-03-01T07:50:22;102207.00;;;5.00
68911;BMP180;55953;51.650;-0.522;2023-03-01T07:52:50;102208.20;;;5.00
68911;BMP180;55953;51.650;-0.522;2023-03-01T07:55:18;102206.60;;;5.00
68911;BMP180;55953;51.650;-0.522;2023-03-01T07:57:47;102221.00;;;5.00
68911;BMP180;55953;51.650;-0.522;2023-03-01T08:00:15;102218.80;;;5.10
68911;BMP180;55953;51.650;-0.522;2023-03-01T08:02:43;102210.80;;;5.14
68911;BMP180;55953;51.650;-0.522;2023-03-01T08:05:11;102205.80;;;5.10
68911;BMP180;55953;51.650;-0.522;2023-03-01T08:07:39;102201.60;;;5.20
68911;BMP180;55953;51.650;-0.522;2023-03-01T08:10:08;102205.40;;;5.20
68911;BMP180;55953;51.650;-0.522;2023-03-01T08:12:36;102199.20;;;5.30
68911;BMP180;55953;51.650;-0.522;2023-03-01T08:15:05;102199.40;;;5.40
68911;BMP180;55953;51.650;-0.522;2023-03-01T08:17:33;102203.80;;;5.48
68911;BMP180;55953;51.650;-0.522;2023-03-01T08:20:01;102199.60;;;5.60
68911;BMP180;55953;51.650;-0.522;2023-03-01T08:22:30;102194.60;;;5.70
68911;BMP180;55953;51.650;-0.522;2023-03-01T08:24:58;102194.60;;;5.70
68911;BMP180;55953;51.650;-0.522;2023-03-01T08:27:26;102193.40;;;5.90
68911;BMP180;55953;51.650;-0.522;2023-03-01T08:29:54;102192.20;;;6.00
68911;BMP180;55953;51.650;-0.522;2023-03-01T08:32:22;102191.80;;;6.10
68911;BMP180;55953;51.650;-0.522;2023-03-01T08:34:50;102189.20;;;6.10
68911;BMP180;55953;51.650;-0.522;2023-03-01T08:37:18;102184.20;;;6.02
68911;BMP180;55953;51.650;-0.522;2023-03-01T08:39:46;102184.80;;;6.00
68911;BMP180;55953;51.650;-0.522;2023-03-01T08:42:14;102184.80;;;6.10
68911;BMP180;55953;51.650;-0.522;2023-03-01T08:44:42;102182.60;;;6.10
68911;BMP180;55953;51.650;-0.522;2023-03-01T08:47:12;102186.60;;;6.12
68911;BMP180;55953;51.650;-0.522;2023-03-01T08:49:40;102184.40;;;6.10
68911;BMP180;55953;51.650;-0.522;2023-03-01T08:52:08;102188.00;;;6.06
68911;BMP180;55953;51.650;-0.522;2023-03-01T08:54:36;102183.80;;;6.00
68911;BMP180;55953;51.650;-0.522;2023-03-01T08:57:04;102185.60;;;6.00
68911;BMP180;55953;51.650;-0.522;2023-03-01T08:59:32;102185.80;;;6.00
68911;BMP180;55953;51.650;-0.522;2023-03-01T09:02:08;102186.20;;;6.10
68911;BMP180;55953;51.650;-0.522;2023-03-01T09:04:38;102181.00;;;6.10
68911;BMP180;55953;51.650;-0.522;2023-03-01T09:07:07;102176.00;;;6.10
68911;BMP180;55953;51.650;-0.522;2023-03-01T09:09:35;102172.40;;;6.20
68911;BMP180;55953;51.650;-0.522;2023-03-01T09:12:03;102167.80;;;6.30
68911;BMP180;55953;51.650;-0.522;2023-03-01T09:14:31;102167.40;;;6.40
68911;BMP180;55953;51.650;-0.522;2023-03-01T09:17:00;102170.20;;;6.40
68911;BMP180;55953;51.650;-0.522;2023-03-01T09:19:30;102168.20;;;6.50
68911;BMP180;55953;51.650;-0.522;2023-03-01T09:21:58;102172.60;;;6.50
68911;BMP180;55953;51.650;-0.522;2023-03-01T09:24:26;102172.00;;;6.50
68911;BMP180;55953;51.650;-0.522;2023-03-01T09:26:55;102165.60;;;6.60
68911;BMP180;55953;51.650;-0.522;2023-03-01T09:29:24;102168.20;;;6.60
68911;BMP180;55953;51.650;-0.522;2023-03-01T09:31:53;102166.60;;;6.70
68911;BMP180;55953;51.650;-0.522;2023-03-01T09:34:23;102162.00;;;6.70
68911;BMP180;55953;51.650;-0.522;2023-03-01T09:36:51;102156.60;;;6.80
68911;BMP180;55953;51.650;-0.522;2023-03-01T09:39:19;102161.00;;;6.90
68911;BMP180;55953;51.650;-0.522;2023-03-01T09:42:02;102154.60;;;6.80
68911;BMP180;55953;51.650;-0.522;2023-03-01T09:44:51;102160.60;;;6.96
68911;BMP180;55953;51.650;-0.522;2023-03-01T09:47:27;102159.00;;;7.10
68911;BMP180;55953;51.650;-0.522;2023-03-01T09:53:05;102152.80;;;7.00
68911;BMP180;55953;51.650;-0.522;2023-03-01T09:55:54;102151.60;;;7.10
68911;BMP180;55953;51.650;-0.522;2023-03-01T10:04:49;102140.60;;;7.34
68911;BMP180;55953;51.650;-0.522;2023-03-01T10:10:48;102140.80;;;7.30
68911;BMP180;55953;51.650;-0.522;2023-03-01T10:13:34;102136.00;;;7.38
68911;BMP180;55953;51.650;-0.522;2023-03-01T10:16:40;102134.40;;;7.40
68911;BMP180;55953;51.650;-0.522;2023-03-01T10:19:38;102130.60;;;7.50
68911;BMP180;55953;51.650;-0.522;2023-03-01T10:22:29;102128.60;;;7.40
68911;BMP180;55953;51.650;-0.522;2023-03-01T10:25:03;102122.40;;;7.58
68911;BMP180;55953;51.650;-0.522;2023-03-01T10:27:46;102125.40;;;7.58
68911;BMP180;55953;51.650;-0.522;2023-03-01T10:30:38;102123.20;;;7.50
68911;BMP180;55953;51.650;-0.522;2023-03-01T10:33:35;102122.00;;;7.52
68911;BMP180;55953;51.650;-0.522;2023-03-01T10:36:05;102109.80;;;7.56
68911;BMP180;55953;51.650;-0.522;2023-03-01T10:38:55;102104.20;;;7.52
68911;BMP180;55953;51.650;-0.522;2023-03-01T10:41:26;102106.40;;;7.60
68911;BMP180;55953;51.650;-0.522;2023-03-01T10:43:58;102099.00;;;7.70
68911;BMP180;55953;51.650;-0.522;2023-03-01T10:46:31;102094.00;;;7.60
68911;BMP180;55953;51.650;-0.522;2023-03-01T10:49:19;102095.80;;;7.60
68911;BMP180;55953;51.650;-0.522;2023-03-01T10:51:51;102094.80;;;7.70
68911;BMP180;55953;51.650;-0.522;2023-03-01T10:54:29;102094.60;;;7.90
68911;BMP180;55953;51.650;-0.522;2023-03-01T10:57:04;102085.80;;;7.80
68911;BMP180;55953;51.650;-0.522;2023-03-01T10:59:35;102081.80;;;7.90
68911;BMP180;55953;51.650;-0.522;2023-03-01T11:02:28;102077.80;;;7.90
68911;BMP180;55953;51.650;-0.522;2023-03-01T11:05:02;102074.40;;;8.10
68911;BMP180;55953;51.650;-0.522;2023-03-01T11:07:30;102077.40;;;8.20
68911;BMP180;55953;51.650;-0.522;2023-03-01T11:10:19;102075.20;;;8.30
68911;BMP180;55953;51.650;-0.522;2023-03-01T11:12:47;102069.00;;;8.30
68911;BMP180;55953;51.650;-0.522;2023-03-01T11:15:27;102066.20;;;8.40
68911;BMP180;55953;51.650;-0.522;2023-03-01T11:17:56;102061.20;;;8.46
68911;BMP180;55953;51.650;-0.522;2023-03-01T11:20:39;102061.40;;;8.50
68911;BMP180;55953;51.650;-0.522;2023-03-01T11:23:13;102061.40;;;8.40
68911;BMP180;55953;51.650;-0.522;2023-03-01T11:25:47;102056.00;;;8.30
68911;BMP180;55953;51.650;-0.522;2023-03-01T11:28:19;102056.20;;;8.30
68911;BMP180;55953;51.650;-0.522;2023-03-01T11:33:58;102057.60;;;8.00
68911;BMP180;55953;51.650;-0.522;2023-03-01T11:36:54;102053.80;;;7.80
68911;BMP180;55953;51.650;-0.522;2023-03-01T11:39:45;102056.00;;;7.80
68911;BMP180;55953;51.650;-0.522;2023-03-01T11:54:09;102041.20;;;7.44
68911;BMP180;55953;51.650;-0.522;2023-03-01T12:03:07;102025.60;;;7.72
68911;BMP180;55953;51.650;-0.522;2023-03-01T12:08:20;102004.40;;;8.10
68911;BMP180;55953;51.650;-0.522;2023-03-01T12:20:14;101986.40;;;8.60
68911;BMP180;55953;51.650;-0.522;2023-03-01T12:23:20;101977.20;;;8.48
68911;BMP180;55953;51.650;-0.522;2023-03-01T12:26:35;101969.40;;;8.40
68911;BMP180;55953;51.650;-0.522;2023-03-01T12:29:33;101972.20;;;8.40
68911;BMP180;55953;51.650;-0.522;2023-03-01T12:38:08;101948.60;;;8.60
68911;BMP180;55953;51.650;-0.522;2023-03-01T12:43:46;101943.80;;;8.80
68911;BMP180;55953;51.650;-0.522;2023-03-01T12:49:31;101929.20;;;8.70
68911;BMP180;55953;51.650;-0.522;2023-03-01T12:54:53;101916.20;;;8.90
68911;BMP180;55953;51.650;-0.522;2023-03-01T12:58:07;101917.40;;;9.10
68911;BMP180;55953;51.650;-0.522;2023-03-01T13:04:02;101894.20;;;9.78
68911;BMP180;55953;51.650;-0.522;2023-03-01T13:15:37;101894.00;;;9.00
68911;BMP180;55953;51.650;-0.522;2023-03-01T13:26:05;101874.20;;;8.90
68911;BMP180;55953;51.650;-0.522;2023-03-01T13:31:05;101874.60;;;9.06
68911;BMP180;55953;51.650;-0.522;2023-03-01T13:50:00;101875.00;;;8.50
68911;BMP180;55953;51.650;-0.522;2023-03-01T13:52:45;101865.40;;;8.50
68911;BMP180;55953;51.650;-0.522;2023-03-01T13:55:18;101862.80;;;8.40
68911;BMP180;55953;51.650;-0.522;2023-03-01T13:57:56;101855.40;;;8.50
68911;BMP180;55953;51.650;-0.522;2023-03-01T14:00:34;101853.20;;;8.60
68911;BMP180;55953;51.650;-0.522;2023-03-01T14:03:13;101851.60;;;8.70
68911;BMP180;55953;51.650;-0.522;2023-03-01T14:09:28;101843.80;;;8.78
68911;BMP180;55953;51.650;-0.522;2023-03-01T14:15:39;101851.40;;;8.76
68911;BMP180;55953;51.650;-0.522;2023-03-01T14:18:29;101838.60;;;8.80
68911;BMP180;55953;51.650;-0.522;2023-03-01T14:21:01;101833.80;;;8.96
68911;BMP180;55953;51.650;-0.522;2023-03-01T14:23:34;101826.20;;;8.98
68911;BMP180;55953;51.650;-0.522;2023-03-01T14:26:04;101826.20;;;9.00
68911;BMP180;55953;51.650;-0.522;2023-03-01T14:28:33;101820.40;;;9.02
68911;BMP180;55953;51.650;-0.522;2023-03-01T14:31:35;101812.60;;;8.98
68911;BMP180;55953;51.650;-0.522;2023-03-01T14:34:22;101810.00;;;8.90
68911;BMP180;55953;51.650;-0.522;2023-03-01T14:36:50;101804.20;;;9.00
68911;BMP180;55953;51.650;-0.522;2023-03-01T14:39:24;101801.20;;;9.10
68911;BMP180;55953;51.650;-0.522;2023-03-01T14:41:54;101796.20;;;9.40
68911;BMP180;55953;51.650;-0.522;2023-03-01T14:44:24;101793.00;;;9.60
68911;BMP180;55953;51.650;-0.522;2023-03-01T14:46:55;101792.60;;;9.48
68911;BMP180;55953;51.650;-0.522;2023-03-01T14:49:29;101788.80;;;9.46
68911;BMP180;55953;51.650;-0.522;2023-03-01T14:52:06;101782.00;;;9.40
68911;BMP180;55953;51.650;-0.522;2023-03-01T14:54:43;101781.80;;;9.22
68911;BMP180;55953;51.650;-0.522;2023-03-01T14:57:25;101782.80;;;9.00
68911;BMP180;55953;51.650;-0.522;2023-03-01T14:59:57;101782.40;;;8.90
68911;BMP180;55953;51.650;-0.522;2023-03-01T15:02:30;101780.40;;;8.82
68911;BMP180;55953;51.650;-0.522;2023-03-01T15:05:03;101777.40;;;8.90
68911;BMP180;55953;51.650;-0.522;2023-03-01T15:07:40;101775.20;;;8.90
68911;BMP180;55953;51.650;-0.522;2023-03-01T15:10:24;101774.60;;;8.90
68911;BMP180;55953;51.650;-0.522;2023-03-01T15:12:53;101772.20;;;8.80
68911;BMP180;55953;51.650;-0.522;2023-03-01T15:15:38;101767.80;;;8.90
68911;BMP180;55953;51.650;-0.522;2023-03-01T15:18:35;101770.40;;;8.76
68911;BMP180;55953;51.650;-0.522;2023-03-01T15:21:16;101769.00;;;8.60
68911;BMP180;55953;51.650;-0.522;2023-03-01T15:23:54;101764.60;;;8.64
68911;BMP180;55953;51.650;-0.522;2023-03-01T15:26:29;101759.20;;;8.56
68911;BMP180;55953;51.650;-0.522;2023-03-01T15:28:59;101755.60;;;8.60
68911;BMP180;55953;51.650;-0.522;2023-03-01T15:31:32;101752.40;;;8.70
68911;BMP180;55953;51.650;-0.522;2023-03-01T15:34:24;101745.60;;;8.70
68911;BMP180;55953;51.650;-0.522;2023-03-01T15:36:54;101739.80;;;8.70
68911;BMP180;55953;51.650;-0.522;2023-03-01T15:39:43;101742.60;;;8.60
68911;BMP180;55953;51.650;-0.522;2023-03-01T15:47:56;101739.40;;;8.50
68911;BMP180;55953;51.650;-0.522;2023-03-01T15:50:44;101736.00;;;8.40
68911;BMP180;55953;51.650;-0.522;2023-03-01T15:53:15;101732.00;;;8.40
68911;BMP180;55953;51.650;-0.522;2023-03-01T15:55:43;101724.40;;;8.50
68911;BMP180;55953;51.650;-0.522;2023-03-01T15:58:16;101724.40;;;8.66
68911;BMP180;55953;51.650;-0.522;2023-03-01T16:00:46;101720.00;;;8.60
68911;BMP180;55953;51.650;-0.522;2023-03-01T16:03:28;101719.60;;;8.60
68911;BMP180;55953;51.650;-0.522;2023-03-01T16:05:57;101710.20;;;8.58
68911;BMP180;55953;51.650;-0.522;2023-03-01T16:08:25;101705.00;;;8.54
68911;BMP180;55953;51.650;-0.522;2023-03-01T16:10:52;101701.80;;;8.50
68911;BMP180;55953;51.650;-0.522;2023-03-01T16:13:22;101696.20;;;8.42
68911;BMP180;55953;51.650;-0.522;2023-03-01T16:15:50;101681.80;;;8.40
68911;BMP180;55953;51.650;-0.522;2023-03-01T16:18:18;101682.00;;;8.30
68911;BMP180;55953;51.650;-0.522;2023-03-01T16:20:46;101682.60;;;8.20
68911;BMP180;55953;51.650;-0.522;2023-03-01T16:23:15;101681.60;;;8.20
68911;BMP180;55953;51.650;-0.522;2023-03-01T16:25:43;101677.80;;;8.14
68911;BMP180;55953;51.650;-0.522;2023-03-01T16:28:11;101679.00;;;8.10
68911;BMP180;55953;51.650;-0.522;2023-03-01T16:30:39;101672.40;;;8.08
68911;BMP180;55953;51.650;-0.522;2023-03-01T16:33:08;101667.60;;;8.00